Overview Statistics Trail Chart Weather Telemetry Raw packets
 

This is the latest recevied weather packets stored in our database for station/object IZ2WYA-13. If no packets are shown the sender has not sent any weather packets the latest 10 day(s).

<< 13 14 15 16 17 18 19 >>
Time Temp. Humidity Pressure Rain* Wind** Luminosity Snow
1787903279 25° C 73% 1019.4 hPa - - - -
1787901477 25° C 74% 1019.4 hPa - - - -
1787899676 24.44° C 73% 1019.7 hPa - - - -
1787897875 24.44° C 73% 1020.9 hPa - - - -
1787896074 24.44° C 75% 1021.1 hPa - - - -
1787894272 24.44° C 71% 1019.4 hPa - - - -
1787892471 24.44° C 70% 1019.6 hPa - - - -
1787890670 25° C 68% 1019.3 hPa - - - -
1787888868 25° C 67% 1019.6 hPa - - - -
1787887067 25° C 65% 1018.7 hPa - - - -
1787885266 25° C 63% 1019.7 hPa - - - -
1787883465 25° C 63% 1019.9 hPa - - - -
1787881664 25.56° C 62% 1019.9 hPa - - - -
1787879863 25.56° C 60% 1019.3 hPa - - - -
1787878061 25.56° C 60% 1019.7 hPa - - - -
1787876260 26.11° C 61% 1020.1 hPa - - - -
1787874459 26.11° C 60% 1020.8 hPa - - - -
1787872657 26.11° C 58% 1020.3 hPa - - - -
1787870856 26.67° C 57% 1020.6 hPa - - - -
1787869055 26.67° C 57% 1020.3 hPa - - - -
1787867254 26.67° C 56% 1020.4 hPa - - - -
1787865452 26.67° C 56% 1020.3 hPa - - - -
1787863651 26.67° C 55% 1020.1 hPa - - - -
1787861850 27.22° C 54% 1020.1 hPa - - - -
1787860049 27.22° C 54% 1019.9 hPa - - - -

* Rain since midnight (hover to see other rain measurements)
** Current wind speed in m/s (hover to see current wind gust speed)